createdAt,value
2022-11-16T00:02:31.069Z,100380.47
2022-11-16T00:05:35.649Z,100383.94
2022-11-16T00:08:45.752Z,100379.84
2022-11-16T00:11:53.946Z,100380.47
2022-11-16T00:14:58.402Z,100364.75
2022-11-16T00:18:02.909Z,100359.69
2022-11-16T00:21:09.500Z,100364.16
2022-11-16T00:24:16.512Z,100351.47
2022-11-16T00:27:24.272Z,100343.00
2022-11-16T00:30:29.275Z,100350.91
2022-11-16T00:33:34.862Z,100346.84
2022-11-16T00:36:39.213Z,100341.75
2022-11-16T00:39:43.774Z,100328.97
2022-11-16T00:42:48.669Z,100328.19
2022-11-16T00:45:53.555Z,100332.78
2022-11-16T00:48:57.914Z,100325.09
2022-11-16T00:52:02.313Z,100334.78
2022-11-16T00:55:07.677Z,100337.38
2022-11-16T00:58:13.961Z,100321.06
2022-11-16T01:01:19.710Z,100325.53
2022-11-16T01:04:24.565Z,100327.44
2022-11-16T01:07:42.021Z,100325.94
2022-11-16T01:10:46.272Z,100325.25
2022-11-16T01:13:51.083Z,100326.16
2022-11-16T01:17:03.286Z,100331.41
2022-11-16T01:20:19.319Z,100327.25
2022-11-16T01:24:12.829Z,100328.22
2022-11-16T01:27:23.215Z,100326.31
2022-11-16T01:30:33.930Z,100311.50
2022-11-16T01:33:41.687Z,100303.50
2022-11-16T01:42:46.680Z,100307.78
2022-11-16T01:46:51.964Z,100313.16
2022-11-16T01:50:26.415Z,100299.75
2022-11-16T01:57:53.232Z,100284.78
2022-11-16T02:01:00.287Z,100289.16
2022-11-16T02:13:27.597Z,100272.84
2022-11-16T02:17:07.642Z,100265.91
2022-11-16T02:21:15.200Z,100253.91
2022-11-16T02:28:16.305Z,100253.00
2022-11-16T02:32:09.740Z,100254.06
2022-11-16T02:35:59.090Z,100246.06
2022-11-16T02:39:17.546Z,100236.53
2022-11-16T02:42:44.135Z,100244.44
2022-11-16T02:50:26.159Z,100240.84
2022-11-16T02:54:07.047Z,100236.59
2022-11-16T02:58:20.169Z,100248.69
2022-11-16T03:01:43.301Z,100252.19
2022-11-16T03:05:09.882Z,100251.28
2022-11-16T03:08:41.095Z,100234.03
2022-11-16T03:12:07.692Z,100233.28
2022-11-16T03:15:25.415Z,100229.75
2022-11-16T03:19:26.874Z,100222.97
2022-11-16T03:22:55.704Z,100225.72
2022-11-16T03:26:05.261Z,100228.47
2022-11-16T03:29:29.249Z,100216.34
2022-11-16T03:33:00.278Z,100214.50
2022-11-16T03:36:23.263Z,100214.50
2022-11-16T03:39:37.435Z,100222.75
2022-11-16T03:42:52.805Z,100227.28
2022-11-16T03:46:18.515Z,100219.19
2022-11-16T03:49:53.691Z,100221.72
2022-11-16T03:53:14.502Z,100204.19
2022-11-16T03:56:27.327Z,100212.97
2022-11-16T03:59:52.807Z,100206.88
2022-11-16T04:07:08.165Z,100204.81
2022-11-16T04:14:40.893Z,100199.09
2022-11-16T04:18:12.555Z,100196.63
2022-11-16T04:22:00.066Z,100190.50
2022-11-16T04:25:15.841Z,100206.88
2022-11-16T04:28:26.156Z,100206.19
2022-11-16T04:31:49.410Z,100206.94
2022-11-16T04:38:41.721Z,100228.78
2022-11-16T04:42:11.148Z,100220.09
2022-11-16T04:45:43.838Z,100224.47
2022-11-16T04:48:59.551Z,100228.78
2022-11-16T04:52:18.187Z,100228.84
2022-11-16T04:55:34.277Z,100222.69
2022-11-16T04:58:47.941Z,100235.56
2022-11-16T05:02:20.550Z,100240.91
2022-11-16T05:05:28.275Z,100242.63
2022-11-16T05:08:42.553Z,100234.00
2022-11-16T05:11:51.831Z,100228.78
2022-11-16T05:14:57.249Z,100234.28
2022-11-16T05:18:10.962Z,100233.28
2022-11-16T05:21:18.256Z,100229.84
2022-11-16T05:24:34.716Z,100227.22
2022-11-16T05:27:50.284Z,100237.81
2022-11-16T05:30:59.637Z,100231.06
2022-11-16T05:34:04.352Z,100228.66
2022-11-16T05:37:12.024Z,100232.16
2022-11-16T05:40:26.008Z,100239.94
2022-11-16T05:43:35.645Z,100246.22
2022-11-16T05:46:42.661Z,100243.47
2022-11-16T05:50:15.229Z,100246.16
2022-11-16T05:53:19.912Z,100245.28
2022-11-16T05:56:29.256Z,100241.78
2022-11-16T05:59:52.959Z,100233.03
2022-11-16T06:02:57.298Z,100237.31
2022-11-16T06:06:04.118Z,100245.34
2022-11-16T06:09:11.244Z,100240.19
2022-11-16T06:12:16.604Z,100230.69
2022-11-16T06:15:27.122Z,100232.59
2022-11-16T06:18:32.621Z,100236.19
2022-11-16T06:21:37.443Z,100233.56
2022-11-16T06:24:42.323Z,100250.16
2022-11-16T06:27:46.509Z,100258.06
2022-11-16T06:30:51.296Z,100265.88
2022-11-16T06:33:55.816Z,100264.91
2022-11-16T06:37:00.204Z,100270.91
2022-11-16T06:40:06.298Z,100269.31
2022-11-16T06:43:11.042Z,100290.06
2022-11-16T06:46:15.556Z,100279.63
2022-11-16T06:49:22.927Z,100280.59
2022-11-16T06:52:26.986Z,100287.59
2022-11-16T06:55:31.952Z,100284.91
2022-11-16T06:58:37.338Z,100294.28
2022-11-16T07:01:43.057Z,100287.53
2022-11-16T07:04:47.840Z,100282.28
2022-11-16T07:07:55.871Z,100297.81
2022-11-16T07:11:05.275Z,100289.06
2022-11-16T07:14:13.315Z,100281.22
2022-11-16T07:17:17.773Z,100275.09
2022-11-16T07:20:23.094Z,100283.84
2022-11-16T07:23:30.512Z,100278.75
2022-11-16T07:26:36.286Z,100287.22
2022-11-16T07:29:40.598Z,100285.53
2022-11-16T07:32:44.585Z,100283.13
2022-11-16T07:35:48.686Z,100283.25
2022-11-16T07:38:54.608Z,100282.28
2022-11-16T07:41:59.320Z,100275.22
2022-11-16T07:45:03.228Z,100281.22
2022-11-16T07:48:07.728Z,100276.78
2022-11-16T07:51:17.163Z,100271.53
2022-11-16T07:54:21.578Z,100275.09
2022-11-16T07:57:26.019Z,100268.88
2022-11-16T08:00:30.841Z,100275.66
2022-11-16T08:03:36.430Z,100271.28
2022-11-16T08:06:40.823Z,100261.66
2022-11-16T08:09:45.230Z,100262.53
2022-11-16T08:12:52.078Z,100270.09
2022-11-16T08:16:13.663Z,100271.00
2022-11-16T08:19:18.466Z,100286.56
2022-11-16T08:25:41.659Z,100274.81
2022-11-16T08:28:48.442Z,100273.97
2022-11-16T08:31:53.090Z,100275.75
2022-11-16T08:34:57.612Z,100280.75
2022-11-16T08:38:02.408Z,100285.06
2022-11-16T08:41:07.856Z,100281.69
2022-11-16T08:44:12.562Z,100289.53
2022-11-16T08:47:17.078Z,100294.59
2022-11-16T08:50:21.400Z,100281.69
2022-11-16T08:53:25.601Z,100282.78
2022-11-16T08:56:33.729Z,100275.97
2022-11-16T08:59:38.284Z,100284.56
2022-11-16T09:02:43.161Z,100287.94
2022-11-16T09:05:47.794Z,100287.13
2022-11-16T09:08:52.535Z,100282.78
2022-11-16T09:11:57.220Z,100289.78
2022-11-16T09:15:01.893Z,100286.28
2022-11-16T09:18:07.096Z,100288.09
2022-11-16T09:21:12.679Z,100291.91
2022-11-16T09:24:17.853Z,100282.28
2022-11-16T09:27:22.891Z,100282.16
2022-11-16T09:30:27.158Z,100292.03
2022-11-16T09:33:34.429Z,100290.41
2022-11-16T09:36:39.517Z,100291.28
2022-11-16T09:39:44.225Z,100294.16
2022-11-16T09:43:20.017Z,100297.66
2022-11-16T09:46:34.751Z,100296.75
2022-11-16T09:49:49.399Z,100302.63
2022-11-16T09:53:00.177Z,100312.94
2022-11-16T09:56:16.472Z,100309.44
2022-11-16T09:59:40.685Z,100319.56
2022-11-16T10:03:14.780Z,100326.50
2022-11-16T10:06:47.798Z,100321.16
2022-11-16T10:09:52.697Z,100312.41
2022-11-16T10:13:28.790Z,100318.53
2022-11-16T10:16:47.779Z,100323.75
2022-11-16T10:20:30.392Z,100324.81
2022-11-16T10:23:40.997Z,100312.66
2022-11-16T10:27:21.840Z,100318.59
2022-11-16T10:30:28.135Z,100325.03
2022-11-16T10:33:35.734Z,100330.03
2022-11-16T10:36:40.486Z,100305.47
2022-11-16T10:39:50.771Z,100314.22
2022-11-16T10:43:16.957Z,100318.03
2022-11-16T10:46:30.665Z,100314.34
2022-11-16T10:49:56.998Z,100309.44
2022-11-16T10:53:01.806Z,100315.34
2022-11-16T10:56:39.542Z,100321.34
2022-11-16T10:59:50.652Z,100311.53
2022-11-16T11:02:54.690Z,100316.69
2022-11-16T11:05:59.764Z,100310.56
2022-11-16T11:09:27.099Z,100316.50
2022-11-16T11:12:40.517Z,100319.16
2022-11-16T11:15:45.157Z,100307.03
2022-11-16T11:18:52.399Z,100309.66
2022-11-16T11:22:01.916Z,100314.16
2022-11-16T11:26:12.325Z,100309.13
2022-11-16T11:29:30.404Z,100301.16
2022-11-16T11:32:40.202Z,100300.25
2022-11-16T11:36:05.516Z,100305.59
2022-11-16T11:39:13.119Z,100312.28
2022-11-16T11:42:17.493Z,100305.06
2022-11-16T11:45:42.972Z,100316.34
2022-11-16T11:49:01.541Z,100311.00
2022-11-16T11:52:21.841Z,100308.16
2022-11-16T11:55:26.653Z,100307.22
2022-11-16T12:03:17.945Z,100296.78
2022-11-16T12:07:12.727Z,100300.13
2022-11-16T12:10:36.401Z,100307.22
2022-11-16T12:14:59.461Z,100301.78
2022-11-16T12:24:30.445Z,100306.19
2022-11-16T12:28:44.914Z,100309.56
2022-11-16T12:32:24.570Z,100303.56
2022-11-16T13:13:59.928Z,100294.16
2022-11-16T13:17:39.122Z,100289.06
2022-11-16T13:21:28.508Z,100287.34
2022-11-16T13:25:06.410Z,100287.41
2022-11-16T13:29:32.915Z,100295.31
2022-11-16T13:42:22.620Z,100294.81
2022-11-16T13:46:55.197Z,100299.25
2022-11-16T14:01:20.674Z,100289.72
2022-11-16T14:05:04.986Z,100291.53
2022-11-16T14:08:27.080Z,100284.56
2022-11-16T14:12:19.678Z,100284.78
2022-11-16T14:15:36.021Z,100286.38
2022-11-16T14:19:01.979Z,100284.78
2022-11-16T14:22:30.340Z,100290.91
2022-11-16T14:26:07.259Z,100288.31
2022-11-16T14:29:32.355Z,100290.91
2022-11-16T14:32:46.884Z,100282.31
2022-11-16T14:35:53.830Z,100276.31
2022-11-16T14:39:29.153Z,100273.56
2022-11-16T14:43:09.933Z,100277.91
2022-11-16T14:46:32.759Z,100270.28
2022-11-16T14:49:56.840Z,100271.84
2022-11-16T14:53:15.719Z,100268.63
2022-11-16T14:56:26.986Z,100270.38
2022-11-16T14:59:38.754Z,100275.69
2022-11-16T15:02:52.032Z,100277.50
2022-11-16T15:06:36.223Z,100275.09
2022-11-16T15:17:40.749Z,100267.19
2022-11-16T15:21:34.544Z,100257.03
2022-11-16T15:24:40.851Z,100274.25
2022-11-16T15:28:28.141Z,100278.78
2022-11-16T15:35:55.713Z,100273.34
2022-11-16T15:39:03.730Z,100270.59
2022-11-16T15:47:12.167Z,100264.50
2022-11-16T15:50:30.085Z,100253.34
2022-11-16T15:53:37.446Z,100265.66
2022-11-16T15:56:42.592Z,100253.63
2022-11-16T15:59:57.007Z,100256.25
2022-11-16T16:03:08.127Z,100257.19
2022-11-16T16:06:37.853Z,100258.09
2022-11-16T16:29:57.309Z,100257.19
2022-11-16T17:55:09.821Z,100312.44
2022-11-16T17:58:14.244Z,100316.00
2022-11-16T18:01:28.745Z,100303.84
2022-11-16T18:04:52.851Z,100324.88
2022-11-16T18:08:12.861Z,100313.00
2022-11-16T18:11:31.581Z,100328.03
2022-11-16T18:14:40.119Z,100341.19
2022-11-16T18:17:59.880Z,100348.22
2022-11-16T18:21:26.389Z,100350.78
2022-11-16T18:24:35.350Z,100355.41
2022-11-16T18:27:40.367Z,100355.53
2022-11-16T18:30:46.565Z,100358.94
2022-11-16T18:34:15.352Z,100357.34
2022-11-16T18:37:25.715Z,100372.06
2022-11-16T18:40:30.595Z,100357.78
2022-11-16T18:43:35.380Z,100363.94
2022-11-16T18:46:59.895Z,100360.69
2022-11-16T18:50:26.867Z,100361.53
2022-11-16T18:53:33.895Z,100369.16
2022-11-16T18:56:38.776Z,100370.06
2022-11-16T18:59:43.918Z,100365.16
2022-11-16T19:02:51.087Z,100370.44
2022-11-16T19:06:00.804Z,100360.09
2022-11-16T19:09:09.553Z,100364.50
2022-11-16T19:12:14.449Z,100363.84
2022-11-16T19:15:19.859Z,100360.19
2022-11-16T19:18:24.375Z,100348.06
2022-11-16T19:21:28.819Z,100344.72
2022-11-16T19:24:33.487Z,100339.56
2022-11-16T19:27:38.177Z,100340.47
2022-11-16T19:30:42.970Z,100340.59
2022-11-16T19:33:57.253Z,100337.22
2022-11-16T19:37:05.762Z,100335.38
2022-11-16T19:40:16.561Z,100340.72
2022-11-16T19:43:22.457Z,100337.31
2022-11-16T19:46:37.590Z,100339.94
2022-11-16T19:49:45.026Z,100337.38
2022-11-16T19:53:02.388Z,100327.94
2022-11-16T19:56:19.918Z,100323.69
2022-11-16T19:59:27.776Z,100334.59
2022-11-16T20:02:45.463Z,100311.34
2022-11-16T20:05:50.303Z,100330.75
2022-11-16T20:09:00.929Z,100305.94
2022-11-16T20:12:05.781Z,100315.75
2022-11-16T20:15:10.894Z,100301.38
2022-11-16T20:18:21.649Z,100289.09
2022-11-16T20:21:48.387Z,100297.88
2022-11-16T20:24:54.645Z,100287.38
2022-11-16T20:27:58.861Z,100286.53
2022-11-16T20:31:07.164Z,100288.47
2022-11-16T20:34:14.960Z,100284.22
2022-11-16T20:37:19.317Z,100277.13
2022-11-16T20:40:25.093Z,100275.38
2022-11-16T20:43:29.422Z,100286.53
2022-11-16T20:46:34.277Z,100280.47
2022-11-16T20:49:39.236Z,100283.00
2022-11-16T20:52:47.261Z,100271.25
2022-11-16T20:55:57.523Z,100261.72
2022-11-16T20:59:02.476Z,100253.91
2022-11-16T21:02:09.661Z,100255.63
2022-11-16T21:05:14.084Z,100248.81
2022-11-16T21:08:19.061Z,100228.97
2022-11-16T21:11:27.274Z,100229.91
2022-11-16T21:14:31.531Z,100225.47
2022-11-16T21:17:36.617Z,100215.22
2022-11-16T21:20:41.235Z,100209.09
2022-11-16T21:23:51.496Z,100202.19
2022-11-16T21:27:00.161Z,100178.69
2022-11-16T21:30:07.159Z,100182.91
2022-11-16T21:33:11.966Z,100175.28
2022-11-16T21:36:19.333Z,100174.44
2022-11-16T21:39:23.700Z,100174.56
2022-11-16T21:42:28.473Z,100172.88
2022-11-16T21:45:33.026Z,100177.41
2022-11-16T21:48:38.107Z,100156.44
2022-11-16T21:51:43.226Z,100165.97
2022-11-16T21:54:47.681Z,100160.69
2022-11-16T21:57:52.285Z,100160.75
2022-11-16T22:00:59.247Z,100173.66
2022-11-16T22:04:22.593Z,100160.63
2022-11-16T22:07:32.993Z,100174.44
2022-11-16T22:10:37.889Z,100160.63
2022-11-16T22:13:43.656Z,100143.41
2022-11-16T22:16:48.199Z,100148.44
2022-11-16T22:19:52.618Z,100162.19
2022-11-16T22:22:57.351Z,100163.06
2022-11-16T22:26:04.405Z,100166.50
2022-11-16T22:29:09.104Z,100149.00
2022-11-16T22:32:13.314Z,100142.94
2022-11-16T22:35:23.478Z,100138.63
2022-11-16T22:38:30.875Z,100152.53
2022-11-16T22:41:35.555Z,100148.16
2022-11-16T22:44:39.699Z,100146.44
2022-11-16T22:47:43.861Z,100149.28
2022-11-16T22:50:51.627Z,100145.00
2022-11-16T22:54:03.972Z,100142.34
2022-11-16T22:57:08.670Z,100126.00
2022-11-16T23:00:14.097Z,100119.72
2022-11-16T23:03:18.620Z,100110.22
2022-11-16T23:06:25.570Z,100108.66
2022-11-16T23:09:34.084Z,100111.22
2022-11-16T23:12:57.230Z,100116.34
2022-11-16T23:16:05.059Z,100110.44
2022-11-16T23:19:41.796Z,100101.88
2022-11-16T23:23:04.760Z,100093.50
2022-11-16T23:26:42.251Z,100084.81
2022-11-16T23:29:48.542Z,100079.59
2022-11-16T23:32:53.789Z,100070.13
2022-11-16T23:36:02.669Z,100065.06
2022-11-16T23:39:10.643Z,100056.59
2022-11-16T23:42:33.738Z,100067.00
2022-11-16T23:45:40.298Z,100057.56
2022-11-16T23:48:45.108Z,100044.00
2022-11-16T23:51:51.167Z,100043.09
2022-11-16T23:54:55.854Z,100045.69
2022-11-16T23:58:00.347Z,100038.94
